Time;durP1;ratioP1;P1;durP2;ratioP2;P2;SDS_P1;SDS_P2;PMS_P1;PMS_P2;Temp;Humidity;BMP_temperature;BMP_pressure;BME280_temperature;BME280_humidity;BME280_pressure;Samples;Min_cycle;Max_cycle;Signal;HPM_P1;HPM_P2
2023/09/15 00:01:47;;;;;;;5.32;1.00;;;;;;;33.72;27.61;100661.66;5009717;28;20135;-78
2023/09/15 00:04:17;;;;;;;5.47;1.67;;;;;;;33.72;26.64;100652.72;5007066;28;20084;-77
2023/09/15 00:06:47;;;;;;;1.50;1.38;;;;;;;33.73;26.56;100649.09;5004384;28;20139;-78
2023/09/15 00:09:18;;;;;;;3.03;1.40;;;;;;;33.74;26.50;100643.63;4997099;28;20434;-78
2023/09/15 00:11:50;;;;;;;3.03;1.42;;;;;;;33.73;27.81;100641.91;4999443;28;20078;-77
2023/09/15 00:14:19;;;;;;;2.97;1.50;;;;;;;33.72;26.99;100642.00;5002410;28;20050;-78
2023/09/15 00:16:48;;;;;;;2.33;1.33;;;;;;;33.68;26.74;100638.69;5000970;28;20049;-77
2023/09/15 00:19:24;;;;;;;3.55;1.33;;;;;;;33.68;27.45;100635.13;4999938;28;20100;-77
2023/09/15 00:21:53;;;;;;;2.47;1.33;;;;;;;33.67;26.61;100633.41;5000984;28;20759;-76
2023/09/15 00:24:28;;;;;;;1.42;1.08;;;;;;;33.68;26.86;100635.13;5005466;28;20177;-77
2023/09/15 00:27:05;;;;;;;1.95;1.20;;;;;;;33.68;28.22;100638.69;5004243;28;20062;-78
2023/09/15 00:29:34;;;;;;;2.65;1.17;;;;;;;33.65;26.97;100629.97;5001170;28;20054;-76
2023/09/15 00:32:03;;;;;;;3.38;1.10;;;;;;;33.61;26.62;100633.84;4995218;28;20052;-77
2023/09/15 00:34:31;;;;;;;2.88;1.27;;;;;;;33.56;26.45;100632.31;4995498;28;20107;-77
2023/09/15 00:36:59;;;;;;;2.38;1.33;;;;;;;33.54;27.30;100628.88;5007749;28;20054;-78
2023/09/15 00:39:28;;;;;;;4.30;1.35;;;;;;;33.49;26.89;100631.00;5007230;28;20054;-78
2023/09/15 00:41:57;;;;;;;5.80;1.33;;;;;;;33.45;27.36;100628.66;4998802;28;20120;-77
2023/09/15 00:44:27;;;;;;;2.50;1.20;;;;;;;33.35;28.01;100631.06;5001311;28;20097;-78
2023/09/15 00:46:56;;;;;;;3.73;1.60;;;;;;;33.23;26.70;100626.56;5008895;28;20136;-76
2023/09/15 00:49:25;;;;;;;6.93;1.63;;;;;;;33.11;27.62;100621.06;4997466;28;20082;-77
2023/09/15 00:51:55;;;;;;;4.53;1.45;;;;;;;33.07;27.14;100622.22;5002441;28;20121;-77
2023/09/15 00:54:25;;;;;;;3.75;1.35;;;;;;;32.99;27.95;100619.19;5014163;28;20492;-76
2023/09/15 00:56:56;;;;;;;6.82;1.25;;;;;;;32.92;27.53;100616.03;4999710;28;20073;-77
2023/09/15 00:59:27;;;;;;;2.80;1.30;;;;;;;32.84;27.70;100614.81;5011459;28;20491;-77
2023/09/15 01:01:56;;;;;;;1.88;1.42;;;;;;;32.76;27.52;100602.81;4999974;28;20114;-76
2023/09/15 01:04:30;;;;;;;1.88;1.35;;;;;;;32.69;27.71;100614.88;5006665;28;20522;-76
2023/09/15 01:07:02;;;;;;;3.70;1.48;;;;;;;32.63;27.48;100611.75;5004803;28;20047;-76
2023/09/15 01:09:31;;;;;;;3.58;1.35;;;;;;;32.60;27.68;100612.81;5009056;28;20038;-73
2023/09/15 01:11:59;;;;;;;6.28;1.30;;;;;;;32.57;28.44;100612.13;5003857;28;20088;-76
2023/09/15 01:14:30;;;;;;;5.32;1.65;;;;;;;32.48;29.14;100606.41;5004491;28;20046;-77
2023/09/15 01:17:08;;;;;;;3.25;1.52;;;;;;;32.40;28.72;100608.69;5001947;28;20105;-77
2023/09/15 01:19:59;;;;;;;3.58;1.50;;;;;;;32.31;29.36;100611.97;5005105;28;20276;-77
2023/09/15 01:23:09;;;;;;;4.22;1.40;;;;;;;32.19;29.28;100612.75;5003179;28;20157;-77
2023/09/15 01:26:20;;;;;;;2.72;1.27;;;;;;;32.07;29.50;100611.69;5005839;28;20054;-79
2023/09/15 01:29:18;;;;;;;3.17;1.30;;;;;;;31.93;28.90;100621.44;5005873;28;20069;-80
2023/09/15 01:31:48;;;;;;;2.72;1.35;;;;;;;31.83;29.98;100609.56;5007151;28;20042;-77
2023/09/15 01:34:17;;;;;;;3.10;1.40;;;;;;;31.75;29.60;100609.19;5000540;28;20050;-79
2023/09/15 01:36:46;;;;;;;3.25;1.40;;;;;;;31.67;30.31;100604.31;4995935;28;20077;-79
2023/09/15 01:39:15;;;;;;;2.10;1.27;;;;;;;31.58;30.54;100601.34;5003542;28;20046;-75
2023/09/15 01:41:43;;;;;;;2.90;1.40;;;;;;;31.50;30.89;100602.66;5008208;28;20046;-77
2023/09/15 01:44:12;;;;;;;3.58;1.45;;;;;;;31.41;30.82;100600.53;5007024;28;20046;-77
2023/09/15 01:46:40;;;;;;;3.53;1.50;;;;;;;31.33;30.79;100596.56;5004573;28;20043;-80
2023/09/15 01:49:12;;;;;;;3.17;1.15;;;;;;;31.26;31.58;100596.06;5005756;28;20050;-82
2023/09/15 01:51:43;;;;;;;6.10;1.73;;;;;;;31.17;31.60;100597.47;5006416;28;20064;-82
2023/09/15 01:54:12;;;;;;;7.55;1.90;;;;;;;31.09;30.30;100597.94;5005225;28;20041;-79
2023/09/15 01:56:41;;;;;;;2.60;1.52;;;;;;;30.99;30.61;100596.75;5011405;28;20041;-79
2023/09/15 01:59:10;;;;;;;2.10;1.40;;;;;;;30.87;31.35;100592.97;4997805;28;20054;-77
2023/09/15 02:01:38;;;;;;;4.20;1.52;;;;;;;30.75;29.98;100588.31;5005234;28;20080;-78
2023/09/15 02:04:07;;;;;;;3.70;1.42;;;;;;;30.61;30.69;100597.13;5001793;28;20054;-77
2023/09/15 02:06:37;;;;;;;5.13;1.40;;;;;;;30.49;31.56;100584.47;5006827;28;20050;-76
2023/09/15 02:09:06;;;;;;;3.55;1.45;;;;;;;30.37;31.43;100587.81;4998282;28;20049;-78
2023/09/15 02:11:35;;;;;;;4.32;1.50;;;;;;;30.23;31.33;100585.88;5003922;28;20518;-77
2023/09/15 02:14:03;;;;;;;2.40;1.35;;;;;;;30.07;31.46;100585.88;5007696;28;20058;-76
2023/09/15 02:16:35;;;;;;;1.90;1.50;;;;;;;29.91;32.10;100585.84;5002421;28;20061;-77
2023/09/15 02:19:06;;;;;;;2.50;1.50;;;;;;;29.77;31.93;100589.25;5009107;28;20046;-77
2023/09/15 02:21:34;;;;;;;3.27;1.43;;;;;;;29.65;32.88;100595.19;5008897;28;20080;-76
2023/09/15 02:24:05;;;;;;;4.40;1.45;;;;;;;29.53;33.20;100590.53;5004853;28;20049;-76
2023/09/15 02:26:34;;;;;;;3.63;1.40;;;;;;;29.40;34.44;100588.47;5008592;28;20048;-76
2023/09/15 02:29:02;;;;;;;3.05;1.42;;;;;;;29.29;33.95;100587.31;5009444;28;20438;-77
2023/09/15 02:31:31;;;;;;;6.30;1.50;;;;;;;29.09;33.56;100572.34;5005006;28;20356;-76
2023/09/15 02:34:00;;;;;;;2.90;1.55;;;;;;;29.07;33.94;100584.84;5019916;28;20485;-76
2023/09/15 02:36:34;;;;;;;2.38;1.30;;;;;;;28.96;34.61;100596.91;5017255;28;20117;-76
2023/09/15 02:39:05;;;;;;;4.45;1.67;;;;;;;28.85;35.23;100588.56;5005427;28;20054;-76
2023/09/15 02:41:35;;;;;;;2.90;1.87;;;;;;;28.71;34.89;100591.06;5004362;28;20167;-76
2023/09/15 02:44:03;;;;;;;3.13;1.67;;;;;;;28.56;35.45;100588.19;5005834;28;20100;-76
2023/09/15 02:46:32;;;;;;;3.40;1.45;;;;;;;28.43;35.96;100595.03;5007190;28;20537;-76
2023/09/15 02:49:01;;;;;;;5.47;1.73;;;;;;;28.28;36.85;100598.41;5010890;28;20053;-77
2023/09/15 02:51:30;;;;;;;2.58;1.30;;;;;;;28.15;37.14;100598.09;5003463;28;20045;-76
2023/09/15 02:53:59;;;;;;;2.25;1.33;;;;;;;28.03;37.31;100599.53;5008126;28;20057;-76
2023/09/15 02:56:30;;;;;;;3.88;2.03;;;;;;;27.89;37.72;100602.81;5011464;28;20496;-77
2023/09/15 02:59:00;;;;;;;2.65;1.40;;;;;;;27.77;37.44;100612.16;5005390;28;20050;-76
2023/09/15 03:01:37;;;;;;;5.57;1.73;;;;;;;27.68;37.19;100609.06;5006108;28;20053;-77
2023/09/15 03:04:12;;;;;;;3.28;1.85;;;;;;;27.56;37.38;100598.03;4999685;28;20148;-76
2023/09/15 03:06:42;;;;;;;5.32;1.65;;;;;;;27.47;37.52;100608.22;4997452;28;20133;-76
2023/09/15 03:09:11;;;;;;;5.20;1.38;;;;;;;27.39;37.98;100605.00;4990890;28;20050;-77
2023/09/15 03:11:42;;;;;;;7.28;1.65;;;;;;;27.28;38.22;100608.09;4994889;28;20146;-77
2023/09/15 03:14:12;;;;;;;4.88;1.48;;;;;;;27.16;38.51;100602.34;4997956;28;20060;-77
2023/09/15 03:16:43;;;;;;;3.88;1.70;;;;;;;27.09;38.69;100605.34;5002271;28;20121;-77
2023/09/15 03:19:11;;;;;;;3.28;1.50;;;;;;;27.01;38.19;100602.13;5001378;28;20047;-77
2023/09/15 03:21:40;;;;;;;4.78;1.85;;;;;;;26.93;38.69;100610.41;5005891;28;20505;-76
2023/09/15 03:24:10;;;;;;;2.20;1.55;;;;;;;26.83;38.45;100606.41;5010643;28;20058;-77
2023/09/15 03:26:40;;;;;;;6.68;1.70;;;;;;;26.78;38.54;100608.38;5007539;28;20054;-76
2023/09/15 03:29:09;;;;;;;3.83;1.42;;;;;;;26.71;38.11;100605.13;5009374;28;20057;-75
2023/09/15 03:31:37;;;;;;;3.10;1.42;;;;;;;26.65;38.06;100606.22;5001116;28;20609;-76
2023/09/15 03:34:06;;;;;;;3.55;1.63;;;;;;;26.59;38.64;100605.59;5000289;28;20061;-76
2023/09/15 03:36:35;;;;;;;1.80;1.10;;;;;;;26.52;38.38;100611.09;5010513;28;20050;-77
2023/09/15 03:39:03;;;;;;;4.18;1.52;;;;;;;26.46;38.14;100611.34;5015211;28;20045;-77
2023/09/15 03:41:32;;;;;;;4.00;1.38;;;;;;;26.40;38.68;100608.94;5022232;28;20057;-78
2023/09/15 03:44:02;;;;;;;2.85;1.38;;;;;;;26.35;38.68;100610.03;5020234;28;20030;-77
2023/09/15 03:46:32;;;;;;;3.13;1.55;;;;;;;26.28;38.57;100607.63;5024619;28;20044;-77
2023/09/15 03:49:00;;;;;;;3.55;1.30;;;;;;;26.22;39.13;100609.63;5023264;28;20049;-78
2023/09/15 03:51:29;;;;;;;3.92;1.10;;;;;;;26.17;38.69;100611.59;5012579;28;20597;-77
2023/09/15 03:53:58;;;;;;;2.17;1.17;;;;;;;26.11;39.45;100610.91;5001577;28;20161;-77
2023/09/15 03:56:26;;;;;;;2.33;1.27;;;;;;;26.07;39.33;100609.28;5003810;28;20060;-77
2023/09/15 03:58:55;;;;;;;2.33;1.10;;;;;;;26.03;39.13;100612.13;5005019;28;20685;-77
2023/09/15 04:01:26;;;;;;;3.15;1.30;;;;;;;26.00;38.59;100614.88;5000725;28;20054;-78
2023/09/15 04:03:55;;;;;;;2.80;1.30;;;;;;;25.97;39.66;100610.53;4994730;28;20086;-77
2023/09/15 04:06:24;;;;;;;2.08;1.25;;;;;;;25.92;39.35;100613.34;5001391;28;20622;-78
2023/09/15 04:08:53;;;;;;;3.20;1.25;;;;;;;25.88;39.75;100608.22;4999606;28;20053;-77
2023/09/15 04:11:21;;;;;;;1.98;0.98;;;;;;;25.82;39.56;100613.75;4990197;28;20475;-79
2023/09/15 04:13:50;;;;;;;3.90;1.30;;;;;;;25.76;39.91;100613.94;4991511;28;20089;-77
2023/09/15 04:16:26;;;;;;;3.65;1.08;;;;;;;25.69;39.69;100608.84;5010378;28;20050;-77
2023/09/15 04:18:56;;;;;;;3.92;1.17;;;;;;;25.63;40.20;100611.75;5005246;28;20049;-76
2023/09/15 04:21:25;;;;;;;2.08;1.40;;;;;;;25.56;40.82;100612.84;5004446;28;20108;-77
2023/09/15 04:23:53;;;;;;;2.42;1.20;;;;;;;25.50;40.54;100607.78;4996281;28;20827;-77
2023/09/15 04:26:24;;;;;;;3.40;1.10;;;;;;;25.46;40.07;100603.50;5002137;28;20084;-75
2023/09/15 04:28:53;;;;;;;1.50;0.90;;;;;;;25.42;40.41;100600.09;5004614;28;20117;-76
2023/09/15 04:31:22;;;;;;;8.13;1.30;;;;;;;25.38;40.60;100595.84;4998361;28;20480;-77
2023/09/15 04:33:50;;;;;;;3.00;1.30;;;;;;;25.33;41.02;100599.53;5005746;28;20053;-76
2023/09/15 04:36:22;;;;;;;3.03;1.10;;;;;;;25.27;41.55;100598.84;5009769;28;20054;-76
2023/09/15 04:38:51;;;;;;;2.13;1.00;;;;;;;25.20;41.61;100599.97;4993391;28;20054;-77
2023/09/15 04:41:19;;;;;;;2.88;1.30;;;;;;;25.11;41.89;100594.97;5000348;28;20061;-77
2023/09/15 04:43:48;;;;;;;2.53;1.02;;;;;;;25.05;41.61;100598.66;5000536;28;20046;-78
2023/09/15 04:46:18;;;;;;;1.55;1.15;;;;;;;25.00;42.25;100597.09;4993244;28;20575;-79
2023/09/15 04:48:49;;;;;;;1.58;1.20;;;;;;;24.94;42.50;100603.44;5001919;28;20046;-78
2023/09/15 04:51:20;;;;;;;2.50;1.30;;;;;;;24.87;42.93;100597.47;5005720;28;20049;-78
2023/09/15 04:53:48;;;;;;;1.98;1.00;;;;;;;24.82;42.74;100599.41;4996119;28;20054;-77
2023/09/15 04:56:17;;;;;;;2.03;1.20;;;;;;;24.83;42.36;100600.25;5003417;28;20053;-77
2023/09/15 04:58:48;;;;;;;4.97;1.05;;;;;;;24.81;42.76;100602.97;5002553;28;20430;-79
2023/09/15 05:01:17;;;;;;;2.47;1.27;;;;;;;24.79;43.36;100607.44;5003023;28;20125;-79
2023/09/15 05:03:46;;;;;;;1.98;1.17;;;;;;;24.75;42.55;100599.66;5003931;28;20053;-77
2023/09/15 05:06:14;;;;;;;1.92;1.27;;;;;;;24.72;43.00;100603.28;4998599;28;20105;-77
2023/09/15 05:08:46;;;;;;;1.58;0.98;;;;;;;24.70;41.67;100605.09;5006383;28;20054;-78
2023/09/15 05:11:18;;;;;;;2.83;1.00;;;;;;;24.64;42.17;100600.00;4997467;28;20046;-78
2023/09/15 05:13:46;;;;;;;1.83;1.10;;;;;;;24.59;41.77;100602.78;4999377;28;20041;-75
2023/09/15 05:16:16;;;;;;;4.60;1.30;;;;;;;24.55;42.95;100602.91;5006315;28;20045;-78
2023/09/15 05:18:45;;;;;;;2.17;1.30;;;;;;;24.51;42.37;100612.75;5002125;28;20050;-77
2023/09/15 05:21:13;;;;;;;4.35;1.20;;;;;;;24.48;41.74;100604.03;5003695;28;20054;-78
2023/09/15 05:23:43;;;;;;;1.38;0.95;;;;;;;24.46;42.00;100601.38;5003781;28;20515;-77
2023/09/15 05:26:12;;;;;;;2.35;1.30;;;;;;;24.42;43.07;100603.28;5004990;28;20663;-76
2023/09/15 05:28:40;;;;;;;3.38;1.30;;;;;;;24.39;42.53;100603.34;5005079;28;20500;-78
2023/09/15 05:31:09;;;;;;;2.60;1.13;;;;;;;24.36;41.93;100598.16;5011394;28;20042;-77
2023/09/15 05:33:41;;;;;;;2.00;1.27;;;;;;;24.35;43.52;100598.19;5007834;28;20533;-78
2023/09/15 05:36:09;;;;;;;2.22;0.93;;;;;;;24.30;41.64;100606.25;5000039;28;20054;-78
2023/09/15 05:38:38;;;;;;;3.00;1.10;;;;;;;24.27;43.29;100594.94;5008998;28;20042;-81
2023/09/15 05:41:09;;;;;;;5.57;1.20;;;;;;;24.21;43.79;100601.25;5008224;28;20134;-79
2023/09/15 05:43:37;;;;;;;2.70;1.20;;;;;;;24.15;45.13;100599.66;5003929;28;20050;-76
2023/09/15 05:46:09;;;;;;;2.65;1.27;;;;;;;24.09;43.61;100597.19;5003431;28;20058;-78
2023/09/15 05:48:37;;;;;;;6.28;1.20;;;;;;;24.01;42.95;100586.84;5010620;28;20057;-77
2023/09/15 05:51:07;;;;;;;1.65;0.98;;;;;;;23.98;42.45;100600.16;5010968;28;20050;-76
2023/09/15 05:53:35;;;;;;;2.25;0.98;;;;;;;23.96;43.42;100595.81;5001025;28;20550;-75
2023/09/15 05:56:05;;;;;;;2.75;1.23;;;;;;;23.92;42.57;100599.47;5002642;28;20069;-78
2023/09/15 05:58:35;;;;;;;2.63;1.23;;;;;;;23.87;45.27;100599.59;5006756;28;20053;-75
2023/09/15 06:01:06;;;;;;;1.60;1.00;;;;;;;23.79;42.41;100593.66;5013469;28;20488;-78
2023/09/15 06:03:36;;;;;;;5.63;1.40;;;;;;;23.76;43.82;100597.25;5002547;28;20574;-76
2023/09/15 06:06:07;;;;;;;2.28;1.00;;;;;;;23.73;45.79;100594.66;5008777;28;20112;-77
2023/09/15 06:08:35;;;;;;;2.13;0.98;;;;;;;23.72;43.74;100594.69;5001684;28;20448;-78
2023/09/15 06:11:06;;;;;;;3.65;1.00;;;;;;;23.68;44.83;100596.53;5010016;28;20045;-80
2023/09/15 06:13:37;;;;;;;2.80;1.10;;;;;;;23.69;45.76;100600.09;5012640;28;20121;-78
2023/09/15 06:16:06;;;;;;;2.75;1.00;;;;;;;23.67;45.24;100591.31;5019039;28;20396;-76
2023/09/15 06:18:36;;;;;;;1.75;1.13;;;;;;;23.65;45.57;100591.34;5008519;28;20049;-78
2023/09/15 06:21:05;;;;;;;3.63;1.08;;;;;;;23.60;47.64;100594.13;5003895;28;20054;-77
2023/09/15 06:23:33;;;;;;;2.72;1.00;;;;;;;;;;5021390;28;20050;-78
2023/09/15 06:26:02;;;;;;;5.32;1.10;;;;;;;23.42;47.00;100581.41;5014347;28;20072;-77
2023/09/15 06:28:30;;;;;;;1.67;1.08;;;;;;;23.40;44.84;100586.72;5014361;28;20102;-76
2023/09/15 06:31:03;;;;;;;4.15;0.95;;;;;;;23.33;46.00;100589.56;5031485;28;20035;-78
2023/09/15 06:33:32;;;;;;;2.50;0.93;;;;;;;23.24;45.51;100590.66;5025604;28;20038;-78
2023/09/15 06:36:01;;;;;;;3.20;1.05;;;;;;;23.18;46.28;100586.44;5023300;28;20058;-77
2023/09/15 06:38:31;;;;;;;3.45;1.20;;;;;;;23.12;45.87;100586.56;5011610;28;20431;-77
2023/09/15 06:40:59;;;;;;;3.13;1.20;;;;;;;23.01;46.07;100578.06;5013325;28;20050;-75
2023/09/15 06:43:28;;;;;;;3.70;1.48;;;;;;;23.00;46.43;100592.16;4999156;28;20117;-78
2023/09/15 06:45:57;;;;;;;4.85;1.10;;;;;;;22.94;43.64;100593.13;5008486;28;20058;-78
2023/09/15 06:48:27;;;;;;;5.55;1.30;;;;;;;22.89;45.81;100594.16;5001507;28;20077;-78
2023/09/15 06:50:56;;;;;;;2.85;1.08;;;;;;;22.83;45.96;100579.34;5003775;28;20109;-75
2023/09/15 06:53:24;;;;;;;3.45;0.95;;;;;;;22.75;44.87;100571.63;5011372;28;20487;-77
2023/09/15 06:55:56;;;;;;;2.45;1.08;;;;;;;22.77;45.26;100582.13;5013600;28;20052;-77
2023/09/15 06:58:25;;;;;;;3.47;1.20;;;;;;;22.71;48.00;100588.41;5005776;28;20056;-77
2023/09/15 07:00:56;;;;;;;2.25;1.00;;;;;;;22.64;47.37;100584.19;5005419;28;20050;-77
2023/09/15 07:03:29;;;;;;;3.22;1.20;;;;;;;22.57;47.94;100586.09;5005335;28;20068;-77
2023/09/15 07:05:58;;;;;;;6.00;1.58;;;;;;;22.50;49.17;100586.28;5003643;28;20085;-78
2023/09/15 07:08:26;;;;;;;3.60;1.30;;;;;;;22.43;48.29;100582.03;5007224;28;20042;-77
2023/09/15 07:10:55;;;;;;;5.03;1.10;;;;;;;22.38;47.73;100584.78;5001034;28;20105;-77
2023/09/15 07:13:23;;;;;;;5.38;1.25;;;;;;;22.36;51.80;100594.50;5005823;28;20057;-78
2023/09/15 07:15:52;;;;;;;6.43;1.30;;;;;;;22.28;48.93;100584.09;5000798;28;20046;-77
2023/09/15 07:18:20;;;;;;;2.75;1.33;;;;;;;22.25;46.85;100581.53;5007730;28;20106;-78
2023/09/15 07:20:51;;;;;;;4.18;1.40;;;;;;;22.24;46.20;100579.81;5003155;28;20046;-77
2023/09/15 07:23:19;;;;;;;5.68;1.10;;;;;;;22.21;46.09;100574.59;5007374;28;20484;-77
2023/09/15 07:25:48;;;;;;;2.50;0.93;;;;;;;22.18;44.80;100585.16;5002094;28;20053;-76
2023/09/15 07:28:17;;;;;;;2.00;0.88;;;;;;;22.14;43.31;100584.34;5002579;28;20049;-77
2023/09/15 07:30:46;;;;;;;4.78;1.58;;;;;;;22.10;46.08;100576.53;5002129;28;20050;-79
2023/09/15 07:33:14;;;;;;;2.88;1.17;;;;;;;22.05;46.86;100579.28;5012717;28;20105;-78
2023/09/15 07:35:44;;;;;;;4.88;1.00;;;;;;;22.03;46.56;100585.47;5004312;28;20136;-78
2023/09/15 07:38:14;;;;;;;5.47;1.20;;;;;;;22.01;46.10;100587.28;5004716;28;20443;-78
2023/09/15 07:40:43;;;;;;;6.78;1.30;;;;;;;21.99;47.15;100583.81;5006989;28;20056;-77
2023/09/15 07:43:13;;;;;;;10.05;1.30;;;;;;;21.93;44.73;100585.66;5005593;28;20058;-79
2023/09/15 07:45:42;;;;;;;2.33;1.17;;;;;;;21.91;44.59;100595.38;5012324;28;20057;-76
2023/09/15 07:48:12;;;;;;;3.45;1.48;;;;;;;21.92;45.35;100583.06;5004520;28;20050;-76
2023/09/15 07:50:41;;;;;;;2.85;1.30;;;;;;;21.91;46.00;100594.50;5006578;28;20132;-75
2023/09/15 07:53:09;;;;;;;3.80;1.35;;;;;;;21.85;43.16;100592.88;5007416;28;20076;-77
2023/09/15 07:55:39;;;;;;;4.50;1.30;;;;;;;21.82;44.65;100592.91;5003283;28;20046;-77
2023/09/15 07:58:08;;;;;;;1.58;1.00;;;;;;;21.81;44.17;100603.50;5002314;28;20108;-79
2023/09/15 08:00:36;;;;;;;4.85;0.90;;;;;;;21.78;44.19;100596.50;5001681;28;20057;-77
2023/09/15 08:03:06;;;;;;;2.30;1.10;;;;;;;21.77;42.26;100601.81;5009041;28;20054;-77
2023/09/15 08:05:34;;;;;;;2.08;1.10;;;;;;;21.78;42.98;100596.50;5007946;28;20050;-78
2023/09/15 08:08:03;;;;;;;5.18;1.33;;;;;;;21.79;46.95;100606.16;5007727;28;20061;-78
2023/09/15 08:10:31;;;;;;;4.25;1.15;;;;;;;21.77;48.46;100605.31;5006408;28;20057;-78
2023/09/15 08:13:08;;;;;;;3.35;1.00;;;;;;;21.70;44.99;100601.06;5008648;28;20132;-80
2023/09/15 08:15:36;;;;;;;1.58;1.08;;;;;;;21.69;44.97;100608.09;5005277;28;20053;-78
2023/09/15 08:18:05;;;;;;;5.80;1.52;;;;;;;21.67;45.71;100598.47;5004272;28;20124;-76
2023/09/15 08:20:34;;;;;;;3.83;1.45;;;;;;;21.60;44.85;100605.63;5000538;28;20046;-79
2023/09/15 08:23:03;;;;;;;3.35;1.10;;;;;;;21.56;43.65;100608.34;5012803;28;20057;-78
2023/09/15 08:25:32;;;;;;;2.70;1.33;;;;;;;21.53;42.21;100606.63;5006614;28;20061;-78
2023/09/15 08:28:03;;;;;;;4.80;1.20;;;;;;;21.55;44.57;100607.47;5006578;28;20060;-78
2023/09/15 08:30:33;;;;;;;1.98;1.20;;;;;;;21.52;47.30;100613.66;5004527;28;20060;-77
2023/09/15 08:33:02;;;;;;;3.47;1.17;;;;;;;21.46;44.27;100607.63;5002245;28;20554;-78
2023/09/15 08:35:31;;;;;;;3.03;1.40;;;;;;;21.44;49.21;100606.78;5002566;28;20120;-79
2023/09/15 08:37:59;;;;;;;6.72;1.40;;;;;;;21.39;48.62;100605.97;5004221;28;20058;-79
2023/09/15 08:40:37;;;;;;;3.33;1.20;;;;;;;21.31;45.77;100606.13;5010174;28;20054;-78
2023/09/15 08:43:11;;;;;;;3.42;1.15;;;;;;;21.32;47.93;100607.84;5004837;28;20133;-78
2023/09/15 08:45:40;;;;;;;5.60;1.13;;;;;;;21.22;47.45;100611.53;5006582;28;20113;-77
2023/09/15 08:48:12;;;;;;;10.30;3.05;;;;;;;21.18;45.06;100615.97;5004327;28;20069;-78
2023/09/15 08:50:40;;;;;;;2.25;1.00;;;;;;;21.14;43.89;100619.53;5008370;28;20501;-79
2023/09/15 08:53:12;;;;;;;2.20;1.05;;;;;;;21.11;45.79;100617.81;5004290;28;20479;-77
2023/09/15 08:55:41;;;;;;;2.22;0.98;;;;;;;21.08;45.55;100615.25;5007063;28;20042;-78
2023/09/15 08:58:12;;;;;;;3.30;1.13;;;;;;;21.03;44.79;100624.13;5004595;28;20054;-76
2023/09/15 09:00:42;;;;;;;2.10;0.85;;;;;;;20.99;44.24;100618.03;5009809;28;20061;-79
2023/09/15 09:03:29;;;;;;;1.77;1.00;;;;;;;20.94;44.12;100619.88;5016797;28;20515;-78
2023/09/15 09:05:59;;;;;;;2.92;0.77;;;;;;;20.89;44.58;100624.31;5012936;28;20088;-77
2023/09/15 09:08:28;;;;;;;4.35;0.90;;;;;;;20.84;44.18;100620.88;5015560;28;20062;-77
2023/09/15 09:10:57;;;;;;;2.47;1.00;;;;;;;20.84;44.42;100634.03;5019597;28;20058;-77
2023/09/15 09:13:28;;;;;;;1.30;0.73;;;;;;;20.84;44.32;100631.41;5017145;28;20054;-77
2023/09/15 09:15:56;;;;;;;2.97;1.00;;;;;;;20.81;44.16;100628.84;5023157;28;20050;-78
2023/09/15 09:18:25;;;;;;;5.53;1.15;;;;;;;20.80;45.38;100629.72;5030228;28;20053;-80
2023/09/15 09:20:54;;;;;;;3.00;1.02;;;;;;;20.76;44.74;100635.94;5018129;28;20053;-77
2023/09/15 09:23:22;;;;;;;2.60;1.60;;;;;;;20.75;45.22;100637.66;5019430;28;20046;-77
2023/09/15 09:25:51;;;;;;;1.63;1.00;;;;;;;20.73;45.00;100631.59;5014649;28;20144;-78
2023/09/15 09:28:21;;;;;;;3.70;0.90;;;;;;;20.71;45.07;100636.84;5013428;28;20109;-78
2023/09/15 09:30:55;;;;;;;1.83;1.10;;;;;;;20.70;45.85;100634.25;5008577;28;20046;-79
2023/09/15 09:33:27;;;;;;;1.10;0.70;;;;;;;20.65;46.19;100629.03;5007936;28;20100;-79
2023/09/15 09:35:55;;;;;;;3.27;0.77;;;;;;;20.58;46.19;100630.03;5010959;28;20049;-74
2023/09/15 09:38:25;;;;;;;2.10;0.90;;;;;;;20.55;45.99;100635.31;5008209;28;20283;-78
2023/09/15 09:40:56;;;;;;;1.63;1.10;;;;;;;20.50;46.90;100631.84;5007023;28;20073;-79
2023/09/15 09:43:27;;;;;;;3.35;1.10;;;;;;;20.38;47.13;100619.75;5003295;28;20157;-76
2023/09/15 09:45:57;;;;;;;2.53;1.17;;;;;;;20.43;47.10;100640.69;5009181;28;20392;-77
2023/09/15 09:48:26;;;;;;;1.85;0.85;;;;;;;20.38;46.97;100637.28;5003321;28;20241;-77
2023/09/15 09:50:56;;;;;;;3.90;0.90;;;;;;;20.36;47.55;100644.28;5006908;28;20068;-77
2023/09/15 09:53:29;;;;;;;5.55;1.33;;;;;;;20.32;47.29;100643.47;5006274;28;20057;-78
2023/09/15 09:55:59;;;;;;;2.15;1.08;;;;;;;20.30;47.54;100640.00;5016286;28;20463;-77
2023/09/15 09:58:28;;;;;;;5.88;1.20;;;;;;;20.24;47.75;100640.94;5000114;28;20127;-75
2023/09/15 10:00:59;;;;;;;2.15;0.93;;;;;;;20.17;48.33;100647.16;5001594;28;20049;-79
2023/09/15 10:03:31;;;;;;;3.63;0.85;;;;;;;20.12;48.28;100648.97;5010877;28;20046;-78
2023/09/15 10:06:00;;;;;;;2.22;0.90;;;;;;;20.10;49.11;100653.38;5008985;28;20103;-78
2023/09/15 10:08:29;;;;;;;1.95;0.88;;;;;;;20.03;49.50;100647.31;5014913;28;20139;-76
2023/09/15 10:10:58;;;;;;;1.63;0.88;;;;;;;19.99;49.31;100653.47;5004151;28;20058;-75
2023/09/15 10:13:27;;;;;;;2.08;1.13;;;;;;;19.95;50.03;100648.28;5010592;28;20050;-75
2023/09/15 10:15:58;;;;;;;2.60;1.02;;;;;;;19.90;50.26;100644.84;5003197;28;20069;-79
2023/09/15 10:18:27;;;;;;;1.30;0.90;;;;;;;19.79;50.38;100648.47;5012874;28;20046;-78
2023/09/15 10:20:58;;;;;;;2.30;1.25;;;;;;;19.67;50.94;100632.78;5006539;28;20069;-78
2023/09/15 10:23:34;;;;;;;2.53;0.90;;;;;;;19.70;51.34;100645.94;5007551;28;20739;-77
2023/09/15 10:26:04;;;;;;;1.83;0.85;;;;;;;19.60;51.56;100641.59;5012386;28;20085;-76
2023/09/15 10:28:33;;;;;;;2.00;1.20;;;;;;;19.50;51.47;100640.81;5009115;28;20042;-76
2023/09/15 10:31:03;;;;;;;2.25;0.80;;;;;;;19.44;51.86;100644.34;5007747;28;20060;-77
2023/09/15 10:33:32;;;;;;;2.35;1.17;;;;;;;19.40;52.33;100645.28;5006406;28;20050;-77
2023/09/15 10:36:04;;;;;;;0.95;0.80;;;;;;;19.34;52.21;100642.72;5001410;28;20050;-77
2023/09/15 10:38:34;;;;;;;2.35;0.90;;;;;;;19.31;52.79;100634.88;5003385;28;20263;-77
2023/09/15 10:41:05;;;;;;;2.83;0.85;;;;;;;19.28;52.32;100632.25;5010797;28;20440;-78
2023/09/15 10:43:34;;;;;;;1.92;0.82;;;;;;;19.25;53.04;100624.41;5005341;28;20144;-78
2023/09/15 10:46:06;;;;;;;2.05;1.00;;;;;;;19.23;53.22;100632.28;5002075;28;20084;-77
2023/09/15 10:48:40;;;;;;;;;;;;;;;19.20;52.92;100628.84;5011493;28;20045;-75
2023/09/15 10:51:10;;;;;;;2.75;1.20;;;;;;;19.15;52.96;100633.22;5006405;28;20008;-76
2023/09/15 10:53:45;;;;;;;2.08;1.00;;;;;;;19.10;53.32;100629.78;5008021;28;20061;-76
2023/09/15 10:56:15;;;;;;;2.03;1.02;;;;;;;19.02;54.32;100633.34;5004230;28;20454;-76
2023/09/15 10:58:44;;;;;;;2.83;1.13;;;;;;;18.92;54.27;100636.91;5006141;28;20058;-76
2023/09/15 11:01:17;;;;;;;4.28;0.82;;;;;;;18.85;54.23;100635.19;5006495;28;20519;-76
2023/09/15 11:03:46;;;;;;;4.63;0.82;;;;;;;18.81;54.43;100641.34;5002392;28;20136;-77
2023/09/15 11:06:15;;;;;;;1.75;0.90;;;;;;;18.77;54.61;100640.50;5009083;28;20057;-74
2023/09/15 11:08:44;;;;;;;6.15;1.23;;;;;;;18.74;54.43;100647.47;5004691;28;20345;-76
2023/09/15 11:11:13;;;;;;;1.60;1.00;;;;;;;18.71;54.40;100652.72;5004615;28;20100;-74
2023/09/15 11:13:42;;;;;;;1.50;0.80;;;;;;;18.67;54.75;100651.00;5005684;28;20132;-76
2023/09/15 11:16:12;;;;;;;2.10;0.98;;;;;;;18.63;54.55;100661.50;5017114;28;20050;-76
2023/09/15 11:18:42;;;;;;;1.50;0.82;;;;;;;18.57;55.11;100658.03;5007375;28;20042;-76
2023/09/15 11:21:13;;;;;;;1.58;0.85;;;;;;;18.54;55.00;100652.81;5008270;28;20045;-76
2023/09/15 11:23:47;;;;;;;2.25;1.05;;;;;;;18.55;54.78;100659.78;5012219;28;20169;-77
2023/09/15 11:26:16;;;;;;;3.42;1.02;;;;;;;18.54;55.14;100658.94;5004880;28;20129;-76
2023/09/15 11:28:44;;;;;;;2.15;0.95;;;;;;;18.52;55.22;100662.44;5010285;28;20101;-76
2023/09/15 11:31:13;;;;;;;2.25;1.08;;;;;;;18.46;56.15;100660.69;5004519;28;20057;-78
2023/09/15 11:33:46;;;;;;;1.33;0.90;;;;;;;18.42;56.53;100659.84;5004527;28;20562;-75
2023/09/15 11:36:15;;;;;;;2.97;0.80;;;;;;;18.32;57.46;100670.38;5005924;28;20046;-76
2023/09/15 11:38:44;;;;;;;3.25;0.95;;;;;;;18.26;57.03;100662.56;5002549;28;20058;-77
2023/09/15 11:41:13;;;;;;;6.00;1.17;;;;;;;18.25;57.75;100668.66;5007682;28;20150;-78